sensor_id;sensor_type;location;lat;lon;timestamp;P1;durP1;ratioP1;P2;durP2;ratioP2
22314;SDS011;11325;55.686;37.566;2023-07-09T00:00:42;11.35;;;6.08;;
22314;SDS011;11325;55.686;37.566;2023-07-09T00:03:12;13.75;;;5.83;;
22314;SDS011;11325;55.686;37.566;2023-07-09T00:05:41;11.80;;;5.92;;
22314;SDS011;11325;55.686;37.566;2023-07-09T00:10:50;11.43;;;6.03;;
22314;SDS011;11325;55.686;37.566;2023-07-09T00:13:29;11.88;;;5.87;;
22314;SDS011;11325;55.686;37.566;2023-07-09T00:15:59;19.98;;;5.87;;
22314;SDS011;11325;55.686;37.566;2023-07-09T00:18:38;12.13;;;5.28;;
22314;SDS011;11325;55.686;37.566;2023-07-09T00:21:18;11.15;;;5.67;;
22314;SDS011;11325;55.686;37.566;2023-07-09T00:23:58;10.55;;;5.87;;
22314;SDS011;11325;55.686;37.566;2023-07-09T00:26:28;10.05;;;5.60;;
22314;SDS011;11325;55.686;37.566;2023-07-09T00:29:01;10.43;;;5.97;;
22314;SDS011;11325;55.686;37.566;2023-07-09T00:31:30;12.58;;;5.78;;
22314;SDS011;11325;55.686;37.566;2023-07-09T00:33:58;9.73;;;5.83;;
22314;SDS011;11325;55.686;37.566;2023-07-09T00:36:28;15.28;;;6.65;;
22314;SDS011;11325;55.686;37.566;2023-07-09T00:41:55;11.35;;;6.05;;
22314;SDS011;11325;55.686;37.566;2023-07-09T00:44:28;11.35;;;6.05;;
22314;SDS011;11325;55.686;37.566;2023-07-09T00:49:41;14.40;;;6.62;;
22314;SDS011;11325;55.686;37.566;2023-07-09T00:52:43;13.30;;;6.53;;
22314;SDS011;11325;55.686;37.566;2023-07-09T00:55:12;19.85;;;6.30;;
22314;SDS011;11325;55.686;37.566;2023-07-09T00:57:42;22.25;;;6.25;;
22314;SDS011;11325;55.686;37.566;2023-07-09T01:00:22;13.70;;;5.95;;
22314;SDS011;11325;55.686;37.566;2023-07-09T01:03:01;10.93;;;6.15;;
22314;SDS011;11325;55.686;37.566;2023-07-09T01:05:30;14.87;;;6.28;;
22314;SDS011;11325;55.686;37.566;2023-07-09T01:07:59;13.00;;;6.35;;
22314;SDS011;11325;55.686;37.566;2023-07-09T01:10:39;13.55;;;5.78;;
22314;SDS011;11325;55.686;37.566;2023-07-09T01:13:18;15.85;;;5.85;;
22314;SDS011;11325;55.686;37.566;2023-07-09T01:15:47;16.80;;;6.03;;
22314;SDS011;11325;55.686;37.566;2023-07-09T01:18:15;13.53;;;5.95;;
22314;SDS011;11325;55.686;37.566;2023-07-09T01:21:03;14.78;;;6.85;;
22314;SDS011;11325;55.686;37.566;2023-07-09T01:23:27;17.55;;;5.92;;
22314;SDS011;11325;55.686;37.566;2023-07-09T01:26:06;10.43;;;6.42;;
22314;SDS011;11325;55.686;37.566;2023-07-09T01:28:34;24.20;;;6.92;;
22314;SDS011;11325;55.686;37.566;2023-07-09T01:31:03;15.72;;;6.22;;
22314;SDS011;11325;55.686;37.566;2023-07-09T01:33:32;18.05;;;6.22;;
22314;SDS011;11325;55.686;37.566;2023-07-09T01:36:01;21.35;;;6.65;;
22314;SDS011;11325;55.686;37.566;2023-07-09T01:38:29;14.45;;;6.20;;
22314;SDS011;11325;55.686;37.566;2023-07-09T01:41:08;13.00;;;6.20;;
22314;SDS011;11325;55.686;37.566;2023-07-09T01:43:39;13.38;;;6.47;;
22314;SDS011;11325;55.686;37.566;2023-07-09T01:46:20;12.68;;;7.00;;
22314;SDS011;11325;55.686;37.566;2023-07-09T01:48:49;10.80;;;6.20;;
22314;SDS011;11325;55.686;37.566;2023-07-09T01:51:29;12.75;;;6.50;;
22314;SDS011;11325;55.686;37.566;2023-07-09T01:54:08;13.35;;;6.85;;
22314;SDS011;11325;55.686;37.566;2023-07-09T01:56:47;11.83;;;7.10;;
22314;SDS011;11325;55.686;37.566;2023-07-09T01:59:16;16.17;;;6.37;;
22314;SDS011;11325;55.686;37.566;2023-07-09T02:01:44;13.58;;;6.03;;
22314;SDS011;11325;55.686;37.566;2023-07-09T02:04:28;12.82;;;6.37;;
22314;SDS011;11325;55.686;37.566;2023-07-09T02:06:59;12.93;;;5.70;;
22314;SDS011;11325;55.686;37.566;2023-07-09T02:09:27;17.20;;;7.08;;
22314;SDS011;11325;55.686;37.566;2023-07-09T02:11:56;20.72;;;6.60;;
22314;SDS011;11325;55.686;37.566;2023-07-09T02:14:24;18.65;;;7.62;;
22314;SDS011;11325;55.686;37.566;2023-07-09T02:17:04;19.52;;;7.05;;
22314;SDS011;11325;55.686;37.566;2023-07-09T02:19:33;20.80;;;7.10;;
22314;SDS011;11325;55.686;37.566;2023-07-09T02:22:12;12.63;;;7.10;;
22314;SDS011;11325;55.686;37.566;2023-07-09T02:24:41;15.13;;;7.92;;
22314;SDS011;11325;55.686;37.566;2023-07-09T02:27:09;15.08;;;7.55;;
22314;SDS011;11325;55.686;37.566;2023-07-09T02:29:38;12.65;;;7.30;;
22314;SDS011;11325;55.686;37.566;2023-07-09T02:32:19;11.97;;;6.60;;
22314;SDS011;11325;55.686;37.566;2023-07-09T02:34:57;16.10;;;7.08;;
22314;SDS011;11325;55.686;37.566;2023-07-09T02:37:26;15.30;;;6.75;;
22314;SDS011;11325;55.686;37.566;2023-07-09T02:40:05;13.80;;;7.17;;
22314;SDS011;11325;55.686;37.566;2023-07-09T02:42:44;14.07;;;6.85;;
22314;SDS011;11325;55.686;37.566;2023-07-09T02:45:23;11.40;;;7.08;;
22314;SDS011;11325;55.686;37.566;2023-07-09T02:47:52;17.65;;;6.83;;
22314;SDS011;11325;55.686;37.566;2023-07-09T02:50:20;15.18;;;7.22;;
22314;SDS011;11325;55.686;37.566;2023-07-09T02:52:49;11.55;;;7.03;;
22314;SDS011;11325;55.686;37.566;2023-07-09T02:55:18;14.85;;;6.40;;
22314;SDS011;11325;55.686;37.566;2023-07-09T02:57:56;11.05;;;6.40;;
22314;SDS011;11325;55.686;37.566;2023-07-09T03:00:25;18.30;;;7.05;;
22314;SDS011;11325;55.686;37.566;2023-07-09T03:03:05;21.90;;;6.95;;
22314;SDS011;11325;55.686;37.566;2023-07-09T03:05:33;26.62;;;7.47;;
22314;SDS011;11325;55.686;37.566;2023-07-09T03:08:02;17.98;;;7.45;;
22314;SDS011;11325;55.686;37.566;2023-07-09T03:10:31;14.78;;;6.25;;
22314;SDS011;11325;55.686;37.566;2023-07-09T03:12:59;11.90;;;7.05;;
22314;SDS011;11325;55.686;37.566;2023-07-09T03:15:28;14.40;;;7.42;;
22314;SDS011;11325;55.686;37.566;2023-07-09T03:18:07;13.18;;;6.90;;
22314;SDS011;11325;55.686;37.566;2023-07-09T03:20:46;16.80;;;7.83;;
22314;SDS011;11325;55.686;37.566;2023-07-09T03:23:15;15.10;;;7.58;;
22314;SDS011;11325;55.686;37.566;2023-07-09T03:25:43;10.15;;;6.50;;
22314;SDS011;11325;55.686;37.566;2023-07-09T03:28:12;10.43;;;7.15;;
22314;SDS011;11325;55.686;37.566;2023-07-09T03:30:53;15.90;;;7.37;;
22314;SDS011;11325;55.686;37.566;2023-07-09T03:33:21;9.83;;;6.35;;
22314;SDS011;11325;55.686;37.566;2023-07-09T03:36:00;15.08;;;7.15;;
22314;SDS011;11325;55.686;37.566;2023-07-09T03:38:29;13.25;;;6.95;;
22314;SDS011;11325;55.686;37.566;2023-07-09T03:40:57;23.10;;;7.12;;
22314;SDS011;11325;55.686;37.566;2023-07-09T03:43:36;14.75;;;6.87;;
22314;SDS011;11325;55.686;37.566;2023-07-09T03:46:04;15.55;;;6.95;;
22314;SDS011;11325;55.686;37.566;2023-07-09T03:48:43;17.77;;;6.85;;
22314;SDS011;11325;55.686;37.566;2023-07-09T03:51:11;14.07;;;6.85;;
22314;SDS011;11325;55.686;37.566;2023-07-09T03:53:50;12.82;;;7.37;;
22314;SDS011;11325;55.686;37.566;2023-07-09T03:56:29;23.22;;;6.90;;
22314;SDS011;11325;55.686;37.566;2023-07-09T03:58:58;22.32;;;7.87;;
22314;SDS011;11325;55.686;37.566;2023-07-09T04:01:37;13.38;;;6.78;;
22314;SDS011;11325;55.686;37.566;2023-07-09T04:04:05;12.93;;;7.05;;
22314;SDS011;11325;55.686;37.566;2023-07-09T04:06:44;13.98;;;7.40;;
22314;SDS011;11325;55.686;37.566;2023-07-09T04:09:22;12.35;;;6.78;;
22314;SDS011;11325;55.686;37.566;2023-07-09T04:11:50;14.47;;;6.67;;
22314;SDS011;11325;55.686;37.566;2023-07-09T04:14:19;15.48;;;6.30;;
22314;SDS011;11325;55.686;37.566;2023-07-09T04:16:47;12.60;;;5.80;;
22314;SDS011;11325;55.686;37.566;2023-07-09T04:19:16;16.95;;;5.95;;
22314;SDS011;11325;55.686;37.566;2023-07-09T04:21:44;14.93;;;6.65;;
22314;SDS011;11325;55.686;37.566;2023-07-09T04:24:23;14.03;;;6.42;;
22314;SDS011;11325;55.686;37.566;2023-07-09T04:26:52;13.10;;;5.75;;
22314;SDS011;11325;55.686;37.566;2023-07-09T04:29:33;9.25;;;6.03;;
22314;SDS011;11325;55.686;37.566;2023-07-09T04:32:14;15.93;;;5.75;;
22314;SDS011;11325;55.686;37.566;2023-07-09T04:34:54;14.87;;;5.72;;
22314;SDS011;11325;55.686;37.566;2023-07-09T04:37:22;12.85;;;5.47;;
22314;SDS011;11325;55.686;37.566;2023-07-09T04:39:51;14.90;;;5.78;;
22314;SDS011;11325;55.686;37.566;2023-07-09T04:42:19;10.03;;;5.33;;
22314;SDS011;11325;55.686;37.566;2023-07-09T04:44:48;12.78;;;6.28;;
22314;SDS011;11325;55.686;37.566;2023-07-09T04:47:17;10.05;;;5.97;;
22314;SDS011;11325;55.686;37.566;2023-07-09T04:49:45;13.53;;;6.40;;
22314;SDS011;11325;55.686;37.566;2023-07-09T04:52:14;7.55;;;4.85;;
22314;SDS011;11325;55.686;37.566;2023-07-09T04:54:43;11.57;;;5.37;;
22314;SDS011;11325;55.686;37.566;2023-07-09T04:57:22;12.40;;;6.05;;
22314;SDS011;11325;55.686;37.566;2023-07-09T05:00:01;10.82;;;5.33;;
22314;SDS011;11325;55.686;37.566;2023-07-09T05:02:31;11.65;;;5.10;;
22314;SDS011;11325;55.686;37.566;2023-07-09T05:05:10;6.03;;;4.53;;
22314;SDS011;11325;55.686;37.566;2023-07-09T05:07:39;9.63;;;3.92;;
22314;SDS011;11325;55.686;37.566;2023-07-09T05:10:19;11.65;;;4.47;;
22314;SDS011;11325;55.686;37.566;2023-07-09T05:12:52;17.87;;;4.67;;
22314;SDS011;11325;55.686;37.566;2023-07-09T05:15:31;9.18;;;4.30;;
22314;SDS011;11325;55.686;37.566;2023-07-09T05:18:10;10.88;;;4.47;;
22314;SDS011;11325;55.686;37.566;2023-07-09T05:20:39;8.70;;;3.70;;
22314;SDS011;11325;55.686;37.566;2023-07-09T05:23:18;6.85;;;3.12;;
22314;SDS011;11325;55.686;37.566;2023-07-09T05:25:46;5.45;;;3.22;;
22314;SDS011;11325;55.686;37.566;2023-07-09T05:28:15;4.78;;;3.10;;
22314;SDS011;11325;55.686;37.566;2023-07-09T05:30:43;4.00;;;2.70;;
22314;SDS011;11325;55.686;37.566;2023-07-09T05:33:12;6.67;;;2.55;;
22314;SDS011;11325;55.686;37.566;2023-07-09T05:35:51;2.75;;;2.22;;
22314;SDS011;11325;55.686;37.566;2023-07-09T05:38:19;7.90;;;2.72;;
22314;SDS011;11325;55.686;37.566;2023-07-09T05:40:48;8.30;;;3.62;;
22314;SDS011;11325;55.686;37.566;2023-07-09T05:43:16;5.65;;;2.90;;
22314;SDS011;11325;55.686;37.566;2023-07-09T05:45:55;6.62;;;2.45;;
22314;SDS011;11325;55.686;37.566;2023-07-09T05:48:34;2.92;;;2.42;;
22314;SDS011;11325;55.686;37.566;2023-07-09T05:51:02;2.95;;;2.30;;
22314;SDS011;11325;55.686;37.566;2023-07-09T05:53:31;7.90;;;2.60;;
22314;SDS011;11325;55.686;37.566;2023-07-09T05:56:00;6.47;;;2.98;;
22314;SDS011;11325;55.686;37.566;2023-07-09T05:58:39;4.67;;;2.80;;
22314;SDS011;11325;55.686;37.566;2023-07-09T06:01:07;3.98;;;2.65;;
22314;SDS011;11325;55.686;37.566;2023-07-09T06:03:36;5.00;;;2.70;;
22314;SDS011;11325;55.686;37.566;2023-07-09T06:06:04;4.50;;;2.42;;
22314;SDS011;11325;55.686;37.566;2023-07-09T06:08:33;5.15;;;3.08;;
22314;SDS011;11325;55.686;37.566;2023-07-09T06:11:02;4.53;;;2.75;;
22314;SDS011;11325;55.686;37.566;2023-07-09T06:13:31;5.62;;;2.77;;
22314;SDS011;11325;55.686;37.566;2023-07-09T06:16:00;5.83;;;2.77;;
22314;SDS011;11325;55.686;37.566;2023-07-09T06:18:29;9.03;;;3.00;;
22314;SDS011;11325;55.686;37.566;2023-07-09T06:21:08;5.60;;;2.62;;
22314;SDS011;11325;55.686;37.566;2023-07-09T06:23:38;4.45;;;2.52;;
22314;SDS011;11325;55.686;37.566;2023-07-09T06:26:07;6.05;;;2.40;;
22314;SDS011;11325;55.686;37.566;2023-07-09T06:28:35;4.70;;;3.05;;
22314;SDS011;11325;55.686;37.566;2023-07-09T06:31:04;8.03;;;2.92;;
22314;SDS011;11325;55.686;37.566;2023-07-09T06:33:33;4.00;;;2.40;;
22314;SDS011;11325;55.686;37.566;2023-07-09T06:36:12;8.23;;;2.62;;
22314;SDS011;11325;55.686;37.566;2023-07-09T06:38:51;5.45;;;2.15;;
22314;SDS011;11325;55.686;37.566;2023-07-09T06:41:20;4.05;;;2.70;;
22314;SDS011;11325;55.686;37.566;2023-07-09T06:43:58;8.28;;;3.05;;
22314;SDS011;11325;55.686;37.566;2023-07-09T06:46:27;5.08;;;2.47;;
22314;SDS011;11325;55.686;37.566;2023-07-09T06:49:05;6.35;;;2.58;;
22314;SDS011;11325;55.686;37.566;2023-07-09T06:51:34;4.62;;;2.55;;
22314;SDS011;11325;55.686;37.566;2023-07-09T06:54:12;3.65;;;2.35;;
22314;SDS011;11325;55.686;37.566;2023-07-09T06:56:52;4.55;;;2.67;;
22314;SDS011;11325;55.686;37.566;2023-07-09T06:59:32;5.85;;;2.50;;
22314;SDS011;11325;55.686;37.566;2023-07-09T07:02:01;3.37;;;2.35;;
22314;SDS011;11325;55.686;37.566;2023-07-09T07:04:39;10.45;;;2.60;;
22314;SDS011;11325;55.686;37.566;2023-07-09T07:07:09;5.75;;;2.77;;
22314;SDS011;11325;55.686;37.566;2023-07-09T07:09:38;5.20;;;2.60;;
22314;SDS011;11325;55.686;37.566;2023-07-09T07:12:07;8.28;;;3.02;;
22314;SDS011;11325;55.686;37.566;2023-07-09T07:14:35;3.47;;;2.75;;
22314;SDS011;11325;55.686;37.566;2023-07-09T07:17:04;6.10;;;2.80;;
22314;SDS011;11325;55.686;37.566;2023-07-09T07:19:43;3.72;;;2.92;;
22314;SDS011;11325;55.686;37.566;2023-07-09T07:22:22;8.03;;;2.62;;
22314;SDS011;11325;55.686;37.566;2023-07-09T07:24:51;11.38;;;2.98;;
22314;SDS011;11325;55.686;37.566;2023-07-09T07:27:31;7.35;;;2.70;;
22314;SDS011;11325;55.686;37.566;2023-07-09T07:30:10;9.38;;;2.90;;
22314;SDS011;11325;55.686;37.566;2023-07-09T07:32:49;7.05;;;3.35;;
22314;SDS011;11325;55.686;37.566;2023-07-09T07:35:18;4.87;;;2.65;;
22314;SDS011;11325;55.686;37.566;2023-07-09T07:37:47;5.80;;;2.52;;
22314;SDS011;11325;55.686;37.566;2023-07-09T07:40:15;3.98;;;2.70;;
22314;SDS011;11325;55.686;37.566;2023-07-09T07:42:54;4.55;;;2.50;;
22314;SDS011;11325;55.686;37.566;2023-07-09T07:45:33;4.70;;;2.67;;
22314;SDS011;11325;55.686;37.566;2023-07-09T07:48:01;4.80;;;2.67;;
22314;SDS011;11325;55.686;37.566;2023-07-09T07:50:30;4.08;;;2.70;;
22314;SDS011;11325;55.686;37.566;2023-07-09T07:52:58;3.80;;;2.50;;
22314;SDS011;11325;55.686;37.566;2023-07-09T07:55:27;4.78;;;2.52;;
22314;SDS011;11325;55.686;37.566;2023-07-09T07:57:56;3.80;;;2.62;;
22314;SDS011;11325;55.686;37.566;2023-07-09T08:00:24;4.42;;;2.55;;
22314;SDS011;11325;55.686;37.566;2023-07-09T08:02:53;6.72;;;2.77;;
22314;SDS011;11325;55.686;37.566;2023-07-09T08:05:21;9.18;;;2.47;;
22314;SDS011;11325;55.686;37.566;2023-07-09T08:07:51;3.08;;;2.20;;
22314;SDS011;11325;55.686;37.566;2023-07-09T08:10:19;3.98;;;2.33;;
22314;SDS011;11325;55.686;37.566;2023-07-09T08:12:48;5.45;;;2.12;;
22314;SDS011;11325;55.686;37.566;2023-07-09T08:15:17;5.83;;;2.33;;
22314;SDS011;11325;55.686;37.566;2023-07-09T08:17:45;4.05;;;2.50;;
22314;SDS011;11325;55.686;37.566;2023-07-09T08:20:24;4.45;;;2.67;;
22314;SDS011;11325;55.686;37.566;2023-07-09T08:22:53;6.90;;;2.12;;
22314;SDS011;11325;55.686;37.566;2023-07-09T08:25:21;3.27;;;1.90;;
22314;SDS011;11325;55.686;37.566;2023-07-09T08:27:50;6.00;;;1.87;;
22314;SDS011;11325;55.686;37.566;2023-07-09T08:30:19;5.50;;;2.17;;
22314;SDS011;11325;55.686;37.566;2023-07-09T08:32:47;5.53;;;2.20;;
22314;SDS011;11325;55.686;37.566;2023-07-09T08:35:16;7.15;;;2.47;;
22314;SDS011;11325;55.686;37.566;2023-07-09T08:37:44;5.62;;;2.33;;
22314;SDS011;11325;55.686;37.566;2023-07-09T08:42:54;9.53;;;2.45;;
22314;SDS011;11325;55.686;37.566;2023-07-09T08:45:39;3.35;;;2.27;;
22314;SDS011;11325;55.686;37.566;2023-07-09T08:48:15;4.00;;;2.20;;
22314;SDS011;11325;55.686;37.566;2023-07-09T08:56:17;2.95;;;2.40;;
22314;SDS011;11325;55.686;37.566;2023-07-09T08:58:46;2.80;;;2.37;;
22314;SDS011;11325;55.686;37.566;2023-07-09T09:01:31;4.12;;;2.30;;
22314;SDS011;11325;55.686;37.566;2023-07-09T09:04:18;3.65;;;2.55;;
22314;SDS011;11325;55.686;37.566;2023-07-09T09:06:46;5.70;;;2.70;;
22314;SDS011;11325;55.686;37.566;2023-07-09T09:09:31;5.28;;;2.58;;
22314;SDS011;11325;55.686;37.566;2023-07-09T09:14:43;6.37;;;2.15;;
22314;SDS011;11325;55.686;37.566;2023-07-09T09:17:16;7.30;;;2.55;;
22314;SDS011;11325;55.686;37.566;2023-07-09T09:19:56;6.33;;;2.42;;
22314;SDS011;11325;55.686;37.566;2023-07-09T09:22:27;3.25;;;2.50;;
22314;SDS011;11325;55.686;37.566;2023-07-09T09:27:25;9.05;;;2.75;;
22314;SDS011;11325;55.686;37.566;2023-07-09T09:29:54;4.65;;;2.50;;
22314;SDS011;11325;55.686;37.566;2023-07-09T09:32:30;11.35;;;3.25;;
22314;SDS011;11325;55.686;37.566;2023-07-09T09:34:59;4.40;;;2.50;;
22314;SDS011;11325;55.686;37.566;2023-07-09T09:37:37;5.33;;;2.58;;
22314;SDS011;11325;55.686;37.566;2023-07-09T09:40:17;3.12;;;2.60;;
22314;SDS011;11325;55.686;37.566;2023-07-09T09:42:47;3.02;;;2.35;;
22314;SDS011;11325;55.686;37.566;2023-07-09T09:45:17;4.75;;;2.62;;
22314;SDS011;11325;55.686;37.566;2023-07-09T09:47:47;2.98;;;2.50;;
22314;SDS011;11325;55.686;37.566;2023-07-09T09:50:16;9.20;;;2.52;;
22314;SDS011;11325;55.686;37.566;2023-07-09T09:52:46;4.97;;;2.75;;
22314;SDS011;11325;55.686;37.566;2023-07-09T09:55:25;2.35;;;1.98;;
22314;SDS011;11325;55.686;37.566;2023-07-09T09:57:55;10.78;;;2.67;;
22314;SDS011;11325;55.686;37.566;2023-07-09T10:00:26;3.17;;;2.15;;
22314;SDS011;11325;55.686;37.566;2023-07-09T10:03:05;4.87;;;2.85;;
22314;SDS011;11325;55.686;37.566;2023-07-09T10:05:37;3.42;;;2.47;;
22314;SDS011;11325;55.686;37.566;2023-07-09T10:10:53;5.08;;;2.90;;
22314;SDS011;11325;55.686;37.566;2023-07-09T10:13:34;4.40;;;3.08;;
22314;SDS011;11325;55.686;37.566;2023-07-09T10:16:21;3.52;;;2.50;;
22314;SDS011;11325;55.686;37.566;2023-07-09T10:26:53;3.55;;;2.35;;
22314;SDS011;11325;55.686;37.566;2023-07-09T10:32:31;3.90;;;2.50;;
22314;SDS011;11325;55.686;37.566;2023-07-09T10:40:36;6.92;;;2.62;;
22314;SDS011;11325;55.686;37.566;2023-07-09T10:43:13;3.72;;;2.35;;
22314;SDS011;11325;55.686;37.566;2023-07-09T10:53:57;5.17;;;2.67;;
22314;SDS011;11325;55.686;37.566;2023-07-09T10:56:42;4.08;;;2.50;;
22314;SDS011;11325;55.686;37.566;2023-07-09T11:01:42;6.33;;;2.65;;
22314;SDS011;11325;55.686;37.566;2023-07-09T11:04:37;3.10;;;2.65;;
22314;SDS011;11325;55.686;37.566;2023-07-09T11:07:17;3.27;;;2.35;;
22314;SDS011;11325;55.686;37.566;2023-07-09T11:09:55;9.03;;;2.77;;
22314;SDS011;11325;55.686;37.566;2023-07-09T11:17:46;5.53;;;2.55;;
22314;SDS011;11325;55.686;37.566;2023-07-09T11:23:03;6.72;;;2.52;;
22314;SDS011;11325;55.686;37.566;2023-07-09T11:25:42;3.77;;;2.50;;
22314;SDS011;11325;55.686;37.566;2023-07-09T11:28:31;6.80;;;3.02;;
22314;SDS011;11325;55.686;37.566;2023-07-09T11:31:18;3.40;;;2.52;;
22314;SDS011;11325;55.686;37.566;2023-07-09T11:34:01;6.83;;;2.50;;
22314;SDS011;11325;55.686;37.566;2023-07-09T11:36:57;11.28;;;2.87;;
22314;SDS011;11325;55.686;37.566;2023-07-09T11:55:52;3.67;;;2.12;;
22314;SDS011;11325;55.686;37.566;2023-07-09T11:58:20;2.85;;;2.25;;
22314;SDS011;11325;55.686;37.566;2023-07-09T12:00:54;6.10;;;2.45;;
22314;SDS011;11325;55.686;37.566;2023-07-09T12:03:32;3.85;;;2.10;;
22314;SDS011;11325;55.686;37.566;2023-07-09T12:06:04;5.67;;;2.60;;
22314;SDS011;11325;55.686;37.566;2023-07-09T12:08:36;7.30;;;2.83;;
22314;SDS011;11325;55.686;37.566;2023-07-09T12:11:05;4.17;;;2.42;;
22314;SDS011;11325;55.686;37.566;2023-07-09T12:13:44;3.08;;;2.33;;
22314;SDS011;11325;55.686;37.566;2023-07-09T12:18:57;2.30;;;2.02;;
22314;SDS011;11325;55.686;37.566;2023-07-09T12:21:37;6.47;;;2.65;;
22314;SDS011;11325;55.686;37.566;2023-07-09T12:26:53;3.35;;;2.72;;
22314;SDS011;11325;55.686;37.566;2023-07-09T12:34:52;2.98;;;2.60;;
22314;SDS011;11325;55.686;37.566;2023-07-09T12:37:21;4.05;;;2.12;;
22314;SDS011;11325;55.686;37.566;2023-07-09T12:40:00;5.70;;;2.40;;
22314;SDS011;11325;55.686;37.566;2023-07-09T12:42:40;3.22;;;2.08;;
22314;SDS011;11325;55.686;37.566;2023-07-09T12:45:20;3.42;;;2.22;;
22314;SDS011;11325;55.686;37.566;2023-07-09T12:47:49;5.25;;;2.17;;
22314;SDS011;11325;55.686;37.566;2023-07-09T12:53:03;11.43;;;2.92;;
22314;SDS011;11325;55.686;37.566;2023-07-09T12:55:44;10.38;;;2.72;;
22314;SDS011;11325;55.686;37.566;2023-07-09T13:01:00;4.87;;;2.90;;
22314;SDS011;11325;55.686;37.566;2023-07-09T13:03:30;4.92;;;2.35;;
22314;SDS011;11325;55.686;37.566;2023-07-09T13:09:09;10.18;;;2.72;;
22314;SDS011;11325;55.686;37.566;2023-07-09T13:11:34;3.55;;;2.75;;
22314;SDS011;11325;55.686;37.566;2023-07-09T13:14:18;8.60;;;2.60;;
22314;SDS011;11325;55.686;37.566;2023-07-09T13:16:47;6.50;;;2.67;;
22314;SDS011;11325;55.686;37.566;2023-07-09T13:19:16;4.87;;;2.60;;
22314;SDS011;11325;55.686;37.566;2023-07-09T13:21:45;4.97;;;3.08;;
22314;SDS011;11325;55.686;37.566;2023-07-09T13:24:25;3.67;;;2.85;;
22314;SDS011;11325;55.686;37.566;2023-07-09T13:26:55;5.20;;;3.22;;
22314;SDS011;11325;55.686;37.566;2023-07-09T13:29:35;4.12;;;2.80;;
22314;SDS011;11325;55.686;37.566;2023-07-09T13:32:07;4.45;;;2.90;;
22314;SDS011;11325;55.686;37.566;2023-07-09T13:34:34;4.47;;;2.87;;
22314;SDS011;11325;55.686;37.566;2023-07-09T13:37:14;3.85;;;2.70;;
22314;SDS011;11325;55.686;37.566;2023-07-09T13:39:43;5.95;;;2.70;;
22314;SDS011;11325;55.686;37.566;2023-07-09T13:42:24;14.23;;;8.85;;
22314;SDS011;11325;55.686;37.566;2023-07-09T13:44:53;2.95;;;2.45;;
22314;SDS011;11325;55.686;37.566;2023-07-09T13:47:33;6.35;;;2.58;;
22314;SDS011;11325;55.686;37.566;2023-07-09T13:50:03;4.10;;;2.62;;
22314;SDS011;11325;55.686;37.566;2023-07-09T13:52:36;3.65;;;2.67;;
22314;SDS011;11325;55.686;37.566;2023-07-09T13:57:55;4.15;;;2.77;;
22314;SDS011;11325;55.686;37.566;2023-07-09T14:00:24;3.50;;;2.50;;
22314;SDS011;11325;55.686;37.566;2023-07-09T14:03:07;8.30;;;3.02;;
22314;SDS011;11325;55.686;37.566;2023-07-09T14:05:44;8.80;;;2.92;;
22314;SDS011;11325;55.686;37.566;2023-07-09T14:08:13;4.95;;;3.08;;
22314;SDS011;11325;55.686;37.566;2023-07-09T14:10:52;6.28;;;3.12;;
22314;SDS011;11325;55.686;37.566;2023-07-09T14:13:21;6.90;;;2.98;;
22314;SDS011;11325;55.686;37.566;2023-07-09T14:16:01;4.72;;;2.83;;
22314;SDS011;11325;55.686;37.566;2023-07-09T14:18:30;4.03;;;2.98;;
22314;SDS011;11325;55.686;37.566;2023-07-09T14:20:59;8.43;;;2.90;;
22314;SDS011;11325;55.686;37.566;2023-07-09T14:23:29;6.45;;;2.55;;
22314;SDS011;11325;55.686;37.566;2023-07-09T14:26:08;5.50;;;2.42;;
22314;SDS011;11325;55.686;37.566;2023-07-09T14:28:37;4.37;;;2.77;;
22314;SDS011;11325;55.686;37.566;2023-07-09T14:36:59;4.28;;;2.98;;
22314;SDS011;11325;55.686;37.566;2023-07-09T14:39:38;8.05;;;3.00;;
22314;SDS011;11325;55.686;37.566;2023-07-09T14:42:11;5.08;;;2.52;;
22314;SDS011;11325;55.686;37.566;2023-07-09T14:44:53;5.53;;;2.80;;
22314;SDS011;11325;55.686;37.566;2023-07-09T14:47:32;5.53;;;2.52;;
22314;SDS011;11325;55.686;37.566;2023-07-09T14:50:01;6.78;;;2.98;;
22314;SDS011;11325;55.686;37.566;2023-07-09T14:52:41;5.67;;;2.60;;
22314;SDS011;11325;55.686;37.566;2023-07-09T14:55:21;4.87;;;2.60;;
22314;SDS011;11325;55.686;37.566;2023-07-09T14:57:52;5.92;;;2.62;;
22314;SDS011;11325;55.686;37.566;2023-07-09T15:00:31;7.97;;;2.50;;
22314;SDS011;11325;55.686;37.566;2023-07-09T15:03:00;6.53;;;3.17;;
22314;SDS011;11325;55.686;37.566;2023-07-09T15:05:28;4.90;;;2.70;;
22314;SDS011;11325;55.686;37.566;2023-07-09T15:08:14;6.58;;;2.85;;
22314;SDS011;11325;55.686;37.566;2023-07-09T15:10:44;4.83;;;2.62;;
22314;SDS011;11325;55.686;37.566;2023-07-09T15:13:29;7.53;;;2.30;;
22314;SDS011;11325;55.686;37.566;2023-07-09T15:16:06;4.40;;;3.20;;
22314;SDS011;11325;55.686;37.566;2023-07-09T15:18:35;5.05;;;2.65;;
22314;SDS011;11325;55.686;37.566;2023-07-09T15:21:15;6.62;;;2.75;;
22314;SDS011;11325;55.686;37.566;2023-07-09T15:23:44;8.98;;;2.90;;
22314;SDS011;11325;55.686;37.566;2023-07-09T15:26:15;2.80;;;2.35;;
22314;SDS011;11325;55.686;37.566;2023-07-09T15:28:44;5.17;;;2.12;;
22314;SDS011;11325;55.686;37.566;2023-07-09T15:31:26;5.40;;;2.33;;
22314;SDS011;11325;55.686;37.566;2023-07-09T15:34:06;4.85;;;2.37;;
22314;SDS011;11325;55.686;37.566;2023-07-09T15:36:34;6.55;;;2.60;;
22314;SDS011;11325;55.686;37.566;2023-07-09T15:39:03;6.67;;;2.58;;
22314;SDS011;11325;55.686;37.566;2023-07-09T15:41:41;14.58;;;2.40;;
22314;SDS011;11325;55.686;37.566;2023-07-09T15:44:20;3.15;;;2.50;;
22314;SDS011;11325;55.686;37.566;2023-07-09T15:46:52;3.83;;;2.20;;
22314;SDS011;11325;55.686;37.566;2023-07-09T15:49:32;3.85;;;2.85;;
22314;SDS011;11325;55.686;37.566;2023-07-09T15:52:11;2.45;;;2.25;;
22314;SDS011;11325;55.686;37.566;2023-07-09T15:54:50;6.87;;;2.80;;
22314;SDS011;11325;55.686;37.566;2023-07-09T15:57:29;4.62;;;1.98;;
22314;SDS011;11325;55.686;37.566;2023-07-09T15:59:57;4.60;;;2.60;;
22314;SDS011;11325;55.686;37.566;2023-07-09T16:02:36;5.08;;;2.35;;
22314;SDS011;11325;55.686;37.566;2023-07-09T16:07:45;2.67;;;2.15;;
22314;SDS011;11325;55.686;37.566;2023-07-09T16:10:16;4.90;;;2.30;;
22314;SDS011;11325;55.686;37.566;2023-07-09T16:12:48;5.58;;;2.30;;
22314;SDS011;11325;55.686;37.566;2023-07-09T16:15:18;2.90;;;2.30;;
22314;SDS011;11325;55.686;37.566;2023-07-09T16:17:47;3.02;;;1.98;;
22314;SDS011;11325;55.686;37.566;2023-07-09T16:20:28;4.50;;;2.35;;
22314;SDS011;11325;55.686;37.566;2023-07-09T16:22:57;7.50;;;2.20;;
22314;SDS011;11325;55.686;37.566;2023-07-09T16:28:13;5.87;;;2.40;;
22314;SDS011;11325;55.686;37.566;2023-07-09T16:30:51;7.22;;;2.40;;
22314;SDS011;11325;55.686;37.566;2023-07-09T16:33:31;5.30;;;2.45;;
22314;SDS011;11325;55.686;37.566;2023-07-09T16:36:00;5.08;;;2.30;;
22314;SDS011;11325;55.686;37.566;2023-07-09T16:38:47;5.35;;;2.33;;
22314;SDS011;11325;55.686;37.566;2023-07-09T16:41:27;7.25;;;2.60;;
22314;SDS011;11325;55.686;37.566;2023-07-09T16:43:56;8.25;;;2.83;;
22314;SDS011;11325;55.686;37.566;2023-07-09T16:46:25;3.47;;;2.40;;
22314;SDS011;11325;55.686;37.566;2023-07-09T16:49:08;9.30;;;2.58;;
22314;SDS011;11325;55.686;37.566;2023-07-09T16:51:34;8.28;;;2.37;;
22314;SDS011;11325;55.686;37.566;2023-07-09T16:54:07;8.33;;;2.62;;
22314;SDS011;11325;55.686;37.566;2023-07-09T16:56:33;5.70;;;2.30;;